AKT2801 CYXS-CYCG
Flight info
| Callsign | AKT2801 |
|---|---|
| Flight time | 0h 41m |
| Altitude | 39000 |
| Route | TIKES |
| Aircraft | B737/M-SDE2E3FGHIRWXY/LB1 |
Departure
| Time | 2026-04-23 03:26 |
|---|---|
| Airport | Prince George (International) Airport (CYXS) |
Arrival
| Time | 2026-04-23 04:08 |
|---|---|
| Airport | Castlegar/West Kootenay Regional Airport (CYCG) |
| Time | Latitude | Longitude | Altitude | Speed | Heading |
|---|---|---|---|---|---|
| 2026-04-23 03:07 | 53.88392 | -122.67571 | 2247 ft | 0 kts | 122° |
| 2026-04-23 03:20 | 53.88392 | -122.67570 | 2247 ft | 1 kts | 118° |
| 2026-04-23 03:20 | 53.88394 | -122.67556 | 2219 ft | 2 kts | 68° |
| 2026-04-23 03:20 | 53.88408 | -122.67553 | 2247 ft | 3 kts | 346° |
| 2026-04-23 03:20 | 53.88436 | -122.67571 | 2247 ft | 6 kts | 338° |
| 2026-04-23 03:21 | 53.88486 | -122.67575 | 2247 ft | 9 kts | 19° |
| 2026-04-23 03:21 | 53.88544 | -122.67526 | 2246 ft | 9 kts | 28° |
| 2026-04-23 03:21 | 53.88588 | -122.67449 | 2246 ft | 9 kts | 65° |
| 2026-04-23 03:21 | 53.88604 | -122.67341 | 2245 ft | 10 kts | 81° |
| 2026-04-23 03:22 | 53.88615 | -122.67216 | 2245 ft | 11 kts | 81° |
| 2026-04-23 03:22 | 53.88630 | -122.67078 | 2245 ft | 12 kts | 80° |
| 2026-04-23 03:22 | 53.88645 | -122.66926 | 2245 ft | 14 kts | 81° |
| 2026-04-23 03:22 | 53.88662 | -122.66762 | 2244 ft | 14 kts | 79° |
| 2026-04-23 03:23 | 53.88612 | -122.66701 | 2244 ft | 11 kts | 171° |
| 2026-04-23 03:23 | 53.88508 | -122.66676 | 2244 ft | 19 kts | 173° |
| 2026-04-23 03:23 | 53.88353 | -122.66635 | 2244 ft | 26 kts | 169° |
| 2026-04-23 03:23 | 53.88152 | -122.66579 | 2242 ft | 33 kts | 171° |
| 2026-04-23 03:24 | 53.87914 | -122.66512 | 2243 ft | 37 kts | 171° |
| 2026-04-23 03:24 | 53.87650 | -122.66437 | 2242 ft | 39 kts | 170° |
| 2026-04-23 03:24 | 53.87386 | -122.66361 | 2240 ft | 37 kts | 171° |
| 2026-04-23 03:24 | 53.87142 | -122.66299 | 2241 ft | 33 kts | 171° |
| 2026-04-23 03:25 | 53.86944 | -122.66256 | 2244 ft | 19 kts | 176° |
| 2026-04-23 03:25 | 53.86885 | -122.66227 | 2243 ft | 5 kts | 60° |
| 2026-04-23 03:25 | 53.86918 | -122.66232 | 2244 ft | 5 kts | 351° |
| 2026-04-23 03:25 | 53.87068 | -122.66272 | 2242 ft | 56 kts | 351° |
| 2026-04-23 03:26 | 53.87697 | -122.66445 | 2243 ft | 125 kts | 352° |
| 2026-04-23 03:26 | 53.88711 | -122.66733 | 2454 ft | 160 kts | 353° |
| 2026-04-23 03:26 | 53.89784 | -122.67041 | 3400 ft | 153 kts | 350° |
| 2026-04-23 03:26 | 53.90815 | -122.67396 | 4348 ft | 154 kts | 350° |
| 2026-04-23 03:27 | 53.91959 | -122.67795 | 4796 ft | 187 kts | 349° |
| 2026-04-23 03:27 | 53.93346 | -122.67629 | 5041 ft | 220 kts | 24° |
| 2026-04-23 03:27 | 53.94478 | -122.65651 | 5408 ft | 255 kts | 62° |
| 2026-04-23 03:27 | 53.94791 | -122.62606 | 6326 ft | 273 kts | 89° |
| 2026-04-23 03:28 | 53.94225 | -122.59458 | 7401 ft | 286 kts | 118° |
| 2026-04-23 03:28 | 53.92835 | -122.57013 | 8456 ft | 295 kts | 141° |
| 2026-04-23 03:28 | 53.91120 | -122.55021 | 9498 ft | 300 kts | 146° |
| 2026-04-23 03:28 | 53.89345 | -122.53162 | 10443 ft | 306 kts | 147° |
| 2026-04-23 03:29 | 53.87472 | -122.51216 | 10929 ft | 328 kts | 147° |
| 2026-04-23 03:29 | 53.85500 | -122.49133 | 11713 ft | 337 kts | 146° |
| 2026-04-23 03:29 | 53.83491 | -122.46967 | 12697 ft | 341 kts | 146° |
| 2026-04-23 03:29 | 53.81483 | -122.44766 | 13694 ft | 344 kts | 146° |
| 2026-04-23 03:30 | 53.79465 | -122.42526 | 14542 ft | 352 kts | 145° |
| 2026-04-23 03:30 | 53.77407 | -122.40222 | 15246 ft | 364 kts | 144° |
| 2026-04-23 03:30 | 53.75261 | -122.37805 | 15975 ft | 375 kts | 144° |
| 2026-04-23 03:30 | 53.73065 | -122.35324 | 16771 ft | 384 kts | 144° |
| 2026-04-23 03:31 | 53.70805 | -122.32765 | 17606 ft | 393 kts | 143° |
| 2026-04-23 03:31 | 53.68527 | -122.30189 | 18390 ft | 402 kts | 143° |
| 2026-04-23 03:31 | 53.66165 | -122.27521 | 19063 ft | 412 kts | 143° |
| 2026-04-23 03:31 | 53.63749 | -122.24792 | 19707 ft | 420 kts | 143° |
| 2026-04-23 03:32 | 53.61315 | -122.22044 | 20407 ft | 429 kts | 143° |
| 2026-04-23 03:32 | 53.58794 | -122.19203 | 21073 ft | 437 kts | 142° |
| 2026-04-23 03:32 | 53.56254 | -122.16345 | 21734 ft | 446 kts | 142° |
| 2026-04-23 03:32 | 53.53637 | -122.13405 | 22383 ft | 454 kts | 142° |
| 2026-04-23 03:33 | 53.43788 | -122.02380 | 24857 ft | 473 kts | 142° |
| 2026-04-23 03:33 | 53.32814 | -121.90241 | 27561 ft | 482 kts | 146° |
| 2026-04-23 03:33 | 53.21321 | -121.77659 | 30080 ft | 492 kts | 143° |
| 2026-04-23 03:33 | 53.09960 | -121.64879 | 31874 ft | 501 kts | 144° |
| 2026-04-23 03:34 | 52.98373 | -121.52280 | 33907 ft | 496 kts | 147° |
| 2026-04-23 03:34 | 52.86875 | -121.39976 | 35760 ft | 485 kts | 148° |
| 2026-04-23 03:34 | 52.75652 | -121.27866 | 37142 ft | 482 kts | 148° |
| 2026-04-23 03:34 | 52.64433 | -121.15803 | 38541 ft | 477 kts | 148° |
| 2026-04-23 03:35 | 52.53267 | -121.03965 | 39250 ft | 480 kts | 149° |
| 2026-04-23 03:35 | 52.41970 | -120.92041 | 39168 ft | 493 kts | 149° |
| 2026-04-23 03:35 | 52.30398 | -120.79870 | 39052 ft | 491 kts | 149° |
| 2026-04-23 03:35 | 52.18906 | -120.67884 | 38980 ft | 480 kts | 149° |
| 2026-04-23 03:36 | 52.07930 | -120.56515 | 38942 ft | 464 kts | 150° |
| 2026-04-23 03:36 | 51.97032 | -120.45257 | 39005 ft | 460 kts | 150° |
| 2026-04-23 03:36 | 51.75331 | -120.23073 | 39033 ft | 470 kts | 150° |
| 2026-04-23 03:37 | 51.52711 | -120.00216 | 39015 ft | 487 kts | 149° |
| 2026-04-23 03:37 | 51.29932 | -119.77477 | 38945 ft | 476 kts | 150° |
| 2026-04-23 03:38 | 51.11554 | -119.59300 | 38874 ft | 453 kts | 150° |
| 2026-04-23 03:38 | 50.90164 | -119.38395 | 38953 ft | 452 kts | 151° |
| 2026-04-23 03:39 | 50.80802 | -119.29315 | 38647 ft | 460 kts | 151° |
| 2026-04-23 03:39 | 50.78027 | -119.26639 | 37750 ft | 466 kts | 151° |
| 2026-04-23 03:39 | 50.75258 | -119.23969 | 37157 ft | 464 kts | 151° |
| 2026-04-23 03:39 | 50.72528 | -119.21336 | 36499 ft | 463 kts | 151° |
| 2026-04-23 03:40 | 50.69764 | -119.18674 | 36021 ft | 459 kts | 152° |
| 2026-04-23 03:40 | 50.67066 | -119.16078 | 35560 ft | 455 kts | 152° |
| 2026-04-23 03:40 | 50.64358 | -119.13475 | 35087 ft | 451 kts | 152° |
| 2026-04-23 03:40 | 50.61677 | -119.10901 | 34635 ft | 448 kts | 152° |
| 2026-04-23 03:41 | 50.59042 | -119.08377 | 34174 ft | 445 kts | 152° |
| 2026-04-23 03:41 | 50.56378 | -119.05829 | 33657 ft | 442 kts | 152° |
| 2026-04-23 03:41 | 50.53916 | -119.03478 | 33206 ft | 439 kts | 152° |
| 2026-04-23 03:41 | 50.51291 | -119.00970 | 32705 ft | 434 kts | 153° |
| 2026-04-23 03:42 | 50.48749 | -118.98542 | 32263 ft | 429 kts | 153° |
| 2026-04-23 03:42 | 50.46194 | -118.96104 | 31833 ft | 426 kts | 153° |
| 2026-04-23 03:42 | 50.43694 | -118.93731 | 31395 ft | 423 kts | 153° |
| 2026-04-23 03:42 | 50.41186 | -118.91356 | 30963 ft | 420 kts | 153° |
| 2026-04-23 03:43 | 50.38674 | -118.88978 | 30536 ft | 418 kts | 153° |
| 2026-04-23 03:43 | 50.36174 | -118.86614 | 30098 ft | 417 kts | 154° |
| 2026-04-23 03:43 | 50.33697 | -118.84277 | 29586 ft | 415 kts | 154° |
| 2026-04-23 03:43 | 50.31251 | -118.81972 | 29041 ft | 410 kts | 154° |
| 2026-04-23 03:44 | 50.28815 | -118.79662 | 28699 ft | 404 kts | 153° |
| 2026-04-23 03:44 | 50.26433 | -118.77394 | 28195 ft | 402 kts | 154° |
| 2026-04-23 03:44 | 50.24020 | -118.75278 | 27757 ft | 395 kts | 157° |
| 2026-04-23 03:44 | 50.21626 | -118.73123 | 27333 ft | 394 kts | 154° |
| 2026-04-23 03:45 | 50.19313 | -118.70902 | 26877 ft | 392 kts | 153° |
| 2026-04-23 03:45 | 50.16970 | -118.68708 | 26422 ft | 388 kts | 154° |
| 2026-04-23 03:45 | 50.14673 | -118.66530 | 25998 ft | 388 kts | 152° |
| 2026-04-23 03:45 | 50.12366 | -118.64299 | 25554 ft | 387 kts | 153° |
| 2026-04-23 03:46 | 50.10056 | -118.62253 | 25006 ft | 378 kts | 158° |
| 2026-04-23 03:46 | 50.07746 | -118.60368 | 24701 ft | 373 kts | 154° |
| 2026-04-23 03:46 | 50.05605 | -118.58121 | 24235 ft | 377 kts | 150° |
| 2026-04-23 03:46 | 50.03424 | -118.55830 | 23783 ft | 375 kts | 153° |
| 2026-04-23 03:47 | 50.01198 | -118.53687 | 23321 ft | 374 kts | 154° |
| 2026-04-23 03:47 | 49.98978 | -118.51614 | 22842 ft | 375 kts | 154° |
| 2026-04-23 03:47 | 49.96746 | -118.49555 | 22350 ft | 374 kts | 155° |
| 2026-04-23 03:47 | 49.94494 | -118.47511 | 21899 ft | 372 kts | 155° |
| 2026-04-23 03:48 | 49.92262 | -118.45467 | 21468 ft | 371 kts | 154° |
| 2026-04-23 03:48 | 49.90062 | -118.43443 | 21015 ft | 371 kts | 154° |
| 2026-04-23 03:48 | 49.87848 | -118.41392 | 20528 ft | 370 kts | 156° |
| 2026-04-23 03:48 | 49.85596 | -118.39469 | 20145 ft | 367 kts | 153° |
| 2026-04-23 03:49 | 49.83411 | -118.37361 | 19636 ft | 369 kts | 153° |
| 2026-04-23 03:49 | 49.81235 | -118.35328 | 19192 ft | 368 kts | 154° |
| 2026-04-23 03:49 | 49.79018 | -118.33282 | 18720 ft | 368 kts | 154° |
| 2026-04-23 03:49 | 49.76807 | -118.31277 | 18291 ft | 366 kts | 154° |
| 2026-04-23 03:50 | 49.74630 | -118.29273 | 17765 ft | 368 kts | 153° |
| 2026-04-23 03:50 | 49.72450 | -118.27258 | 17304 ft | 366 kts | 153° |
| 2026-04-23 03:50 | 49.70253 | -118.25229 | 16852 ft | 364 kts | 151° |
| 2026-04-23 03:50 | 49.68140 | -118.23102 | 16414 ft | 365 kts | 150° |
| 2026-04-23 03:51 | 49.65935 | -118.21107 | 15910 ft | 362 kts | 156° |
| 2026-04-23 03:51 | 49.63710 | -118.19395 | 15460 ft | 355 kts | 158° |
| 2026-04-23 03:51 | 49.61519 | -118.17800 | 15178 ft | 345 kts | 151° |
| 2026-04-23 03:51 | 49.59574 | -118.15658 | 14746 ft | 346 kts | 146° |
| 2026-04-23 03:52 | 49.57577 | -118.13605 | 14352 ft | 342 kts | 151° |
| 2026-04-23 03:52 | 49.55556 | -118.11754 | 14217 ft | 331 kts | 152° |
| 2026-04-23 03:52 | 49.53591 | -118.09984 | 14055 ft | 322 kts | 152° |
| 2026-04-23 03:52 | 49.51723 | -118.08221 | 13893 ft | 316 kts | 143° |
| 2026-04-23 03:53 | 49.50329 | -118.05687 | 13714 ft | 306 kts | 114° |
| 2026-04-23 03:53 | 49.49724 | -118.02564 | 13133 ft | 305 kts | 89° |
| 2026-04-23 03:53 | 49.49805 | -117.99380 | 12785 ft | 289 kts | 76° |
| 2026-04-23 03:53 | 49.50053 | -117.96354 | 12457 ft | 286 kts | 75° |
| 2026-04-23 03:54 | 49.50311 | -117.93352 | 12114 ft | 285 kts | 75° |
| 2026-04-23 03:54 | 49.50569 | -117.90349 | 11853 ft | 280 kts | 76° |
| 2026-04-23 03:54 | 49.50819 | -117.87368 | 11542 ft | 277 kts | 76° |
| 2026-04-23 03:54 | 49.51059 | -117.84440 | 11268 ft | 276 kts | 77° |
| 2026-04-23 03:55 | 49.51297 | -117.81494 | 10943 ft | 276 kts | 77° |
| 2026-04-23 03:55 | 49.51527 | -117.78598 | 10627 ft | 274 kts | 77° |
| 2026-04-23 03:55 | 49.51736 | -117.75699 | 10414 ft | 265 kts | 77° |
| 2026-04-23 03:55 | 49.51950 | -117.72859 | 10020 ft | 267 kts | 77° |
| 2026-04-23 03:56 | 49.52175 | -117.70053 | 9768 ft | 265 kts | 77° |
| 2026-04-23 03:56 | 49.52389 | -117.67247 | 9470 ft | 266 kts | 81° |
| 2026-04-23 03:56 | 49.52308 | -117.64404 | 9249 ft | 259 kts | 90° |
| 2026-04-23 03:56 | 49.52108 | -117.61685 | 8974 ft | 251 kts | 90° |
| 2026-04-23 03:57 | 49.51922 | -117.59076 | 8744 ft | 242 kts | 91° |
| 2026-04-23 03:57 | 49.51743 | -117.56543 | 8542 ft | 231 kts | 93° |
| 2026-04-23 03:57 | 49.51124 | -117.54302 | 8342 ft | 231 kts | 128° |
| 2026-04-23 03:57 | 49.49845 | -117.52924 | 8081 ft | 217 kts | 166° |
| 2026-04-23 03:58 | 49.48389 | -117.52612 | 7882 ft | 210 kts | 188° |
| 2026-04-23 03:58 | 49.46964 | -117.52777 | 7746 ft | 202 kts | 191° |
| 2026-04-23 03:58 | 49.45502 | -117.53019 | 7452 ft | 216 kts | 192° |
| 2026-04-23 03:58 | 49.44019 | -117.53250 | 7341 ft | 209 kts | 192° |
| 2026-04-23 03:59 | 49.42603 | -117.53468 | 7062 ft | 203 kts | 192° |
| 2026-04-23 03:59 | 49.41215 | -117.53682 | 6846 ft | 194 kts | 194° |
| 2026-04-23 03:59 | 49.40003 | -117.54316 | 6606 ft | 179 kts | 220° |
| 2026-04-23 03:59 | 49.38913 | -117.55280 | 6396 ft | 181 kts | 219° |
| 2026-04-23 04:00 | 49.37870 | -117.56174 | 6138 ft | 166 kts | 220° |
| 2026-04-23 04:00 | 49.36870 | -117.57036 | 5924 ft | 158 kts | 214° |
| 2026-04-23 04:00 | 49.35909 | -117.57875 | 5628 ft | 157 kts | 211° |
| 2026-04-23 04:00 | 49.34949 | -117.58692 | 5451 ft | 158 kts | 211° |
| 2026-04-23 04:01 | 49.33989 | -117.59551 | 5094 ft | 162 kts | 219° |
| 2026-04-23 04:01 | 49.33112 | -117.60645 | 4684 ft | 161 kts | 224° |
| 2026-04-23 04:01 | 49.32265 | -117.61680 | 4530 ft | 157 kts | 221° |
| 2026-04-23 04:01 | 49.31398 | -117.62716 | 4525 ft | 157 kts | 221° |
| 2026-04-23 04:02 | 49.30554 | -117.63729 | 4495 ft | 152 kts | 224° |
| 2026-04-23 04:02 | 49.29725 | -117.64698 | 4464 ft | 150 kts | 224° |
| 2026-04-23 04:02 | 49.28877 | -117.65664 | 4417 ft | 153 kts | 221° |
| 2026-04-23 04:02 | 49.28022 | -117.66656 | 4290 ft | 153 kts | 222° |
| 2026-04-23 04:03 | 49.27136 | -117.67492 | 4196 ft | 152 kts | 194° |
| 2026-04-23 04:03 | 49.26087 | -117.67268 | 4083 ft | 171 kts | 137° |
| 2026-04-23 04:03 | 49.25586 | -117.65756 | 4070 ft | 161 kts | 83° |
| 2026-04-23 04:03 | 49.25974 | -117.64209 | 3719 ft | 157 kts | 41° |
| 2026-04-23 04:04 | 49.26756 | -117.63063 | 3163 ft | 160 kts | 37° |
| 2026-04-23 04:04 | 49.27763 | -117.62335 | 2581 ft | 160 kts | 352° |
| 2026-04-23 04:04 | 49.28764 | -117.62687 | 3029 ft | 132 kts | 341° |
| 2026-04-23 04:04 | 49.29702 | -117.63061 | 3044 ft | 155 kts | 343° |
| 2026-04-23 04:05 | 49.30735 | -117.63573 | 2962 ft | 148 kts | 320° |
| 2026-04-23 04:05 | 49.31211 | -117.64834 | 2795 ft | 150 kts | 263° |
| 2026-04-23 04:05 | 49.30628 | -117.66136 | 2611 ft | 161 kts | 206° |
| 2026-04-23 04:05 | 49.29515 | -117.66379 | 2787 ft | 167 kts | 180° |
| 2026-04-23 04:06 | 49.28354 | -117.66234 | 3197 ft | 171 kts | 178° |
| 2026-04-23 04:06 | 49.27126 | -117.66115 | 3387 ft | 174 kts | 180° |
| 2026-04-23 04:06 | 49.25928 | -117.65934 | 3396 ft | 172 kts | 157° |
| 2026-04-23 04:06 | 49.25252 | -117.64672 | 3336 ft | 155 kts | 79° |
| 2026-04-23 04:07 | 49.25745 | -117.63274 | 3033 ft | 156 kts | 32° |
| 2026-04-23 04:07 | 49.26687 | -117.62669 | 2695 ft | 148 kts | 0° |
| 2026-04-23 04:07 | 49.27747 | -117.62705 | 2082 ft | 158 kts | 355° |
| 2026-04-23 04:07 | 49.28786 | -117.62994 | 1708 ft | 145 kts | 346° |
| 2026-04-23 04:08 | 49.29680 | -117.63270 | 1632 ft | 111 kts | 349° |
| 2026-04-23 04:08 | 49.30058 | -117.63380 | 1626 ft | 11 kts | 348° |
| 2026-04-23 04:08 | 49.30101 | -117.63442 | 1628 ft | 9 kts | 274° |
| 2026-04-23 04:08 | 49.30092 | -117.63525 | 1629 ft | 7 kts | 243° |
| 2026-04-23 04:09 | 49.30077 | -117.63576 | 1625 ft | 6 kts | 292° |
| 2026-04-23 04:09 | 49.30084 | -117.63594 | 1623 ft | 0 kts | 300° |